Time;durP1;ratioP1;P1;durP2;ratioP2;P2;SDS_P1;SDS_P2;PMS_P1;PMS_P2;Temp;Humidity;BMP_temperature;BMP_pressure;BME280_temperature;BME280_humidity;BME280_pressure;Samples;Min_cycle;Max_cycle;Signal;HPM_P1;HPM_P2
2022/07/15 00:02:09;;;;;;;4.20;3.90;;;20.40;65.50;;;;;;4975549;28;20235;-67
2022/07/15 00:04:36;;;;;;;4.07;3.77;;;20.30;66.50;;;;;;4974719;28;20688;-67
2022/07/15 00:07:03;;;;;;;4.57;4.00;;;20.20;67.40;;;;;;4975103;28;20446;-67
2022/07/15 00:12:13;;;;;;;4.77;4.43;;;20.10;67.20;;;;;;4976032;28;20470;-67
2022/07/15 00:14:40;;;;;;;4.87;3.60;;;20.10;68.30;;;;;;4974551;28;20813;-67
2022/07/15 00:17:06;;;;;;;4.70;4.40;;;20.00;69.20;;;;;;4974508;28;20176;-67
2022/07/15 00:19:33;;;;;;;5.63;4.10;;;19.90;69.20;;;;;;4973318;28;20905;-66
2022/07/15 00:21:59;;;;;;;4.60;4.20;;;19.80;72.10;;;;;;4974769;28;20466;-67
2022/07/15 00:24:25;;;;;;;5.93;4.07;;;19.80;79.80;;;;;;4973824;28;20475;-67
2022/07/15 00:26:50;;;;;;;4.83;4.37;;;19.80;81.60;;;;;;4974176;28;20252;-67
2022/07/15 00:29:16;;;;;;;3.93;3.63;;;19.70;81.30;;;;;;4973568;28;20642;-67
2022/07/15 00:31:42;;;;;;;4.70;4.23;;;19.60;82.70;;;;;;4974512;28;20749;-67
2022/07/15 00:34:07;;;;;;;6.10;4.80;;;19.60;83.20;;;;;;4974911;28;20187;-68
2022/07/15 00:36:33;;;;;;;4.73;4.33;;;19.60;72.00;;;;;;4974672;28;20176;-66
2022/07/15 00:38:58;;;;;;;3.87;3.57;;;19.50;71.70;;;;;;4974106;28;20752;-66
2022/07/15 00:41:24;;;;;;;6.30;3.90;;;19.50;73.30;;;;;;4975140;28;20219;-67
2022/07/15 00:43:50;;;;;;;4.43;4.10;;;19.40;74.10;;;;;;4974045;28;20833;-65
2022/07/15 00:46:18;;;;;;;5.00;4.60;;;19.40;74.70;;;;;;4975071;28;20276;-66
2022/07/15 00:48:44;;;;;;;4.97;4.50;;;19.30;74.70;;;;;;4973081;28;20435;-66
2022/07/15 00:51:09;;;;;;;6.20;4.00;;;19.30;75.30;;;;;;4974783;28;20613;-66
2022/07/15 00:53:37;;;;;;;4.13;3.83;;;19.20;75.80;;;;;;4974188;28;20600;-68
2022/07/15 00:56:06;;;;;;;4.40;3.87;;;19.20;76.90;;;;;;4973652;28;20238;-66
2022/07/15 00:58:36;;;;;;;4.33;4.00;;;19.20;77.40;;;;;;4955606;28;20950;-67
2022/07/15 01:01:03;;;;;;;7.50;4.40;;;19.10;77.50;;;;;;4974793;28;20455;-67
2022/07/15 01:03:31;;;;;;;5.70;5.07;;;19.00;78.00;;;;;;4973882;28;20961;-66
2022/07/15 01:05:58;;;;;;;4.63;4.30;;;19.00;78.00;;;;;;4974725;28;20443;-66
2022/07/15 01:08:23;;;;;;;6.50;4.30;;;19.00;80.30;;;;;;4971918;28;20467;-66
2022/07/15 01:10:50;;;;;;;4.40;4.00;;;18.90;81.20;;;;;;4974462;28;20561;-66
2022/07/15 01:13:18;;;;;;;4.37;3.97;;;18.90;81.80;;;;;;4973128;28;20522;-66
2022/07/15 01:15:43;;;;;;;4.67;4.30;;;18.80;82.70;;;;;;4974492;28;20435;-66
2022/07/15 01:18:09;;;;;;;5.00;4.60;;;18.70;83.60;;;;;;4973025;28;20457;-68
2022/07/15 01:20:38;;;;;;;5.00;4.50;;;18.70;83.80;;;;;;4972720;28;20192;-66
2022/07/15 01:23:04;;;;;;;4.97;4.57;;;18.60;84.80;;;;;;4973722;28;20208;-66
2022/07/15 01:25:30;;;;;;;10.90;4.40;;;18.60;85.20;;;;;;4973594;28;20471;-66
2022/07/15 01:27:56;;;;;;;3.97;3.67;;;18.50;84.80;;;;;;4972839;28;20274;-66
2022/07/15 01:30:22;;;;;;;6.03;3.77;;;18.50;83.90;;;;;;4973778;28;20258;-66
2022/07/15 01:32:48;;;;;;;4.33;3.60;;;18.50;83.20;;;;;;4972440;28;20543;-66
2022/07/15 01:35:14;;;;;;;5.63;4.20;;;18.50;83.40;;;;;;4973632;28;20439;-66
2022/07/15 01:37:40;;;;;;;4.13;3.40;;;18.40;82.60;;;;;;4973418;28;20810;-66
2022/07/15 01:40:07;;;;;;;4.43;4.13;;;18.50;82.00;;;;;;4973290;28;20188;-67
2022/07/15 01:42:32;;;;;;;4.50;4.10;;;18.60;82.70;;;;;;4973151;28;20208;-66
2022/07/15 01:44:58;;;;;;;7.10;4.27;;;18.50;82.90;;;;;;4973567;28;20550;-68
2022/07/15 01:47:24;;;;;;;5.93;3.77;;;18.40;83.60;;;;;;4956040;28;20192;-68
2022/07/15 01:49:49;;;;;;;4.50;4.20;;;18.30;83.10;;;;;;4974936;28;20176;-66
2022/07/15 01:52:15;;;;;;;3.90;3.40;;;18.20;84.60;;;;;;4974074;28;20217;-66
2022/07/15 01:54:41;;;;;;;5.10;3.77;;;18.10;84.40;;;;;;4954932;29;20264;-68
2022/07/15 01:57:06;;;;;;;3.60;3.40;;;18.10;84.70;;;;;;4972247;28;20600;-66
2022/07/15 01:59:32;;;;;;;4.43;4.03;;;18.10;85.30;;;;;;4972904;28;20447;-66
2022/07/15 02:01:58;;;;;;;4.20;3.40;;;18.10;85.40;;;;;;4971731;28;20200;-66
2022/07/15 02:04:24;;;;;;;5.10;4.13;;;18.10;84.20;;;;;;4973495;28;20703;-67
2022/07/15 02:06:50;;;;;;;5.27;3.80;;;18.10;85.90;;;;;;4972144;28;20468;-66
2022/07/15 02:09:16;;;;;;;3.87;3.53;;;17.90;85.90;;;;;;4970726;28;20463;-68
2022/07/15 02:11:41;;;;;;;4.13;3.70;;;18.00;86.90;;;;;;4973291;28;20207;-66
2022/07/15 02:14:07;;;;;;;4.67;3.73;;;18.00;86.80;;;;;;4976653;28;20184;-66
2022/07/15 02:16:35;;;;;;;4.30;4.00;;;18.00;85.80;;;;;;4973160;28;20276;-66
2022/07/15 02:19:00;;;;;;;6.40;4.20;;;17.90;87.10;;;;;;4970965;28;20184;-65
2022/07/15 02:21:26;;;;;;;3.70;3.40;;;17.90;86.20;;;;;;4972166;28;20461;-66
2022/07/15 02:23:57;;;;;;;4.03;3.73;;;18.00;86.50;;;;;;4972474;28;20215;-66
2022/07/15 02:26:23;;;;;;;4.30;4.00;;;18.00;85.90;;;;;;4971556;28;20454;-65
2022/07/15 02:28:48;;;;;;;6.03;4.20;;;17.90;86.00;;;;;;4970450;28;20443;-66
2022/07/15 02:31:14;;;;;;;4.27;3.90;;;17.90;88.30;;;;;;4973305;28;20829;-66
2022/07/15 02:33:41;;;;;;;3.80;3.50;;;17.80;88.50;;;;;;4973881;28;20191;-68
2022/07/15 02:36:07;;;;;;;3.70;3.40;;;17.70;89.70;;;;;;4972704;28;20439;-66
2022/07/15 02:38:33;;;;;;;5.40;3.93;;;17.60;90.10;;;;;;4971501;28;20999;-66
2022/07/15 02:40:58;;;;;;;4.10;3.80;;;17.60;90.50;;;;;;4970414;28;20211;-66
2022/07/15 02:43:24;;;;;;;4.60;4.10;;;17.50;91.30;;;;;;4969487;28;20188;-66
2022/07/15 02:45:49;;;;;;;4.20;3.90;;;17.40;92.20;;;;;;4971636;28;20204;-66
2022/07/15 02:48:15;;;;;;;5.67;3.93;;;17.30;93.20;;;;;;4969057;28;20180;-66
2022/07/15 02:50:41;;;;;;;5.50;5.00;;;17.20;93.20;;;;;;4973649;28;20184;-66
2022/07/15 02:53:07;;;;;;;5.83;4.50;;;17.30;93.20;;;;;;4972422;28;20226;-64
2022/07/15 02:55:33;;;;;;;4.03;3.63;;;17.30;93.20;;;;;;4973338;28;20778;-66
2022/07/15 02:57:58;;;;;;;4.13;3.90;;;17.30;93.10;;;;;;4972994;28;20442;-66
2022/07/15 03:00:24;;;;;;;4.00;3.70;;;17.20;93.00;;;;;;4972427;28;20196;-67
2022/07/15 03:02:50;;;;;;;4.67;4.20;;;17.20;93.60;;;;;;4972610;28;20234;-66
2022/07/15 03:05:17;;;;;;;3.60;3.40;;;17.10;94.30;;;;;;4971546;28;20222;-66
2022/07/15 03:07:43;;;;;;;3.80;3.30;;;17.00;95.00;;;;;;4971816;28;20267;-66
2022/07/15 03:10:10;;;;;;;6.07;4.60;;;16.90;95.40;;;;;;4973303;28;20788;-66
2022/07/15 03:12:35;;;;;;;5.53;4.10;;;16.90;95.80;;;;;;4976317;28;20451;-66
2022/07/15 03:15:02;;;;;;;3.90;3.60;;;17.10;96.20;;;;;;4969531;28;20440;-65
2022/07/15 03:17:28;;;;;;;6.80;4.80;;;16.90;96.30;;;;;;4970610;28;20180;-66
2022/07/15 03:19:56;;;;;;;5.93;5.53;;;16.90;96.50;;;;;;4971326;28;20443;-66
2022/07/15 03:22:23;;;;;;;5.37;4.90;;;16.80;97.50;;;;;;4975618;28;20578;-67
2022/07/15 03:24:49;;;;;;;4.03;3.73;;;16.70;98.60;;;;;;4973058;28;20467;-66
2022/07/15 03:27:16;;;;;;;4.53;4.20;;;16.60;99.30;;;;;;4971513;28;20462;-66
2022/07/15 03:29:43;;;;;;;5.23;4.43;;;16.60;99.90;;;;;;4969772;28;20194;-66
2022/07/15 03:32:10;;;;;;;7.07;4.40;;;16.40;99.90;;;;;;4971751;28;20490;-66
2022/07/15 03:34:36;;;;;;;4.07;3.67;;;16.40;99.90;;;;;;4971420;28;20494;-67
2022/07/15 03:37:01;;;;;;;4.60;4.30;;;16.40;99.90;;;;;;4975781;28;20903;-66
2022/07/15 03:39:27;;;;;;;5.03;4.37;;;16.50;99.90;;;;;;4973076;28;20439;-66
2022/07/15 03:41:53;;;;;;;10.20;4.30;;;16.60;99.90;;;;;;4975205;28;20242;-66
2022/07/15 03:44:18;;;;;;;6.00;4.50;;;16.60;99.90;;;;;;4974376;28;20216;-66
2022/07/15 03:46:45;;;;;;;5.00;4.70;;;16.50;99.90;;;;;;4975412;28;20188;-66
2022/07/15 03:49:12;;;;;;;4.60;4.23;;;16.50;99.90;;;;;;4973816;28;20199;-66
2022/07/15 03:51:37;;;;;;;4.47;4.17;;;16.50;99.90;;;;;;4974685;28;20475;-66
2022/07/15 03:54:04;;;;;;;3.97;3.47;;;16.60;99.90;;;;;;4975014;28;20505;-68
2022/07/15 03:56:30;;;;;;;4.60;4.20;;;16.50;99.90;;;;;;4974014;28;20184;-66
2022/07/15 03:58:56;;;;;;;5.17;4.70;;;16.50;99.90;;;;;;4974240;28;20451;-65
2022/07/15 04:01:22;;;;;;;5.50;3.97;;;16.50;99.90;;;;;;4974447;28;20834;-66
2022/07/15 04:03:49;;;;;;;4.20;3.80;;;16.60;99.90;;;;;;4972631;28;20443;-68
2022/07/15 04:06:15;;;;;;;5.00;4.60;;;16.60;99.90;;;;;;4974286;28;20826;-66
2022/07/15 04:08:42;;;;;;;6.20;5.43;;;16.60;99.90;;;;;;4971300;28;20602;-65
2022/07/15 04:11:08;;;;;;;5.83;4.70;;;16.70;99.90;;;;;;4973407;28;20467;-66
2022/07/15 04:13:33;;;;;;;6.50;4.90;;;16.80;99.90;;;;;;4974871;28;20805;-65
2022/07/15 04:15:59;;;;;;;5.07;4.57;;;16.90;99.90;;;;;;4974333;28;20184;-66
2022/07/15 04:18:24;;;;;;;6.73;5.23;;;17.00;99.90;;;;;;4973730;28;20191;-66
2022/07/15 04:20:50;;;;;;;4.43;4.10;;;17.10;99.90;;;;;;4976924;28;20674;-66
2022/07/15 04:23:15;;;;;;;5.23;4.40;;;17.20;99.90;;;;;;4974638;28;20181;-67
2022/07/15 04:25:41;;;;;;;5.53;4.90;;;17.40;99.90;;;;;;4975351;28;20250;-66
2022/07/15 04:28:07;;;;;;;4.77;4.37;;;17.50;99.90;;;;;;4973532;28;20202;-64
2022/07/15 04:30:33;;;;;;;5.10;4.60;;;17.60;99.90;;;;;;4973636;28;20180;-66
2022/07/15 04:32:58;;;;;;;6.57;4.70;;;17.60;99.90;;;;;;4975237;28;20215;-66
2022/07/15 04:35:24;;;;;;;5.63;5.03;;;17.60;99.90;;;;;;4974115;28;20224;-65
2022/07/15 04:37:49;;;;;;;5.43;4.80;;;17.70;99.90;;;;;;4973769;28;20230;-66
2022/07/15 04:40:15;;;;;;;7.40;5.33;;;17.80;99.90;;;;;;4973196;28;20200;-68
2022/07/15 04:42:40;;;;;;;7.50;4.80;;;17.90;99.90;;;;;;4974434;28;20200;-66
2022/07/15 04:45:06;;;;;;;7.23;5.30;;;18.00;99.90;;;;;;4973484;28;20327;-66
2022/07/15 04:47:32;;;;;;;5.47;5.07;;;18.00;99.90;;;;;;4973304;28;20188;-65
2022/07/15 04:52:46;;;;;;;6.17;5.00;;;18.20;99.90;;;;;;4973979;28;20222;-67
2022/07/15 04:55:12;;;;;;;4.97;4.57;;;18.40;99.90;;;;;;4974440;28;20446;-65
2022/07/15 04:57:38;;;;;;;6.10;5.23;;;18.50;99.90;;;;;;4973448;28;20470;-67
2022/07/15 05:00:05;;;;;;;5.33;4.83;;;18.60;99.90;;;;;;4972481;28;20435;-67
2022/07/15 05:02:31;;;;;;;5.60;5.20;;;18.70;99.90;;;;;;4974335;28;20698;-66
2022/07/15 05:04:56;;;;;;;4.93;4.53;;;18.80;99.90;;;;;;4973466;28;20530;-66
2022/07/15 05:07:22;;;;;;;8.40;5.30;;;19.00;99.90;;;;;;4973301;28;20184;-66
2022/07/15 05:09:48;;;;;;;5.70;5.10;;;19.10;99.90;;;;;;4973186;28;20187;-66
2022/07/15 05:12:13;;;;;;;6.80;5.30;;;19.20;99.90;;;;;;4973221;28;20358;-67
2022/07/15 05:14:40;;;;;;;5.73;5.00;;;19.30;99.80;;;;;;4973792;28;20184;-66
2022/07/15 05:17:09;;;;;;;5.33;4.80;;;19.30;99.50;;;;;;4967562;28;20180;-66
2022/07/15 05:19:35;;;;;;;5.10;4.60;;;19.50;99.10;;;;;;4972471;28;20479;-66
2022/07/15 05:22:01;;;;;;;5.27;4.77;;;19.50;99.30;;;;;;4972849;28;20499;-66
2022/07/15 05:24:26;;;;;;;5.47;5.00;;;19.80;98.60;;;;;;4974236;28;20310;-68
2022/07/15 05:26:52;;;;;;;6.97;4.77;;;20.00;98.00;;;;;;4973431;28;20435;-66
2022/07/15 05:29:21;;;;;;;5.60;4.80;;;20.10;97.20;;;;;;4972271;28;20206;-66
2022/07/15 05:31:47;;;;;;;7.20;6.30;;;20.20;96.60;;;;;;4972486;28;20196;-65
2022/07/15 05:34:13;;;;;;;8.33;4.67;;;20.40;95.60;;;;;;4972916;28;20534;-65
2022/07/15 05:36:39;;;;;;;7.00;5.43;;;20.60;95.20;;;;;;4972740;28;20522;-66
2022/07/15 05:39:04;;;;;;;9.83;5.07;;;20.70;94.30;;;;;;4973017;28;20176;-66
2022/07/15 05:41:32;;;;;;;5.77;5.20;;;20.90;93.40;;;;;;4972702;28;20236;-67
2022/07/15 05:43:58;;;;;;;8.57;5.73;;;21.00;93.20;;;;;;4972613;28;20251;-66
2022/07/15 05:46:23;;;;;;;7.67;4.47;;;21.10;92.50;;;;;;4973463;28;20857;-68
2022/07/15 05:48:49;;;;;;;5.10;4.70;;;21.10;91.50;;;;;;4972520;28;20188;-68
2022/07/15 05:51:14;;;;;;;4.90;4.50;;;21.20;91.20;;;;;;4972584;28;20215;-67
2022/07/15 05:53:40;;;;;;;4.20;3.90;;;21.30;90.90;;;;;;4973245;28;20227;-68
2022/07/15 05:56:06;;;;;;;5.70;4.57;;;21.40;89.70;;;;;;4976498;28;20200;-68
2022/07/15 05:58:31;;;;;;;5.27;4.50;;;21.50;88.90;;;;;;4972315;28;20604;-67
2022/07/15 06:00:57;;;;;;;3.90;3.60;;;21.60;86.50;;;;;;4972999;28;20238;-67
2022/07/15 06:03:23;;;;;;;4.57;4.03;;;21.60;86.10;;;;;;4975095;28;20180;-69
2022/07/15 06:05:48;;;;;;;4.57;3.80;;;21.60;86.40;;;;;;4972887;28;20196;-71
2022/07/15 06:08:14;;;;;;;4.23;3.83;;;21.70;85.40;;;;;;4971948;28;20250;-68
2022/07/15 06:10:41;;;;;;;4.47;4.03;;;21.80;82.80;;;;;;4973896;28;20176;-68
2022/07/15 06:13:07;;;;;;;5.10;3.93;;;22.00;82.80;;;;;;4964834;28;20183;-70
2022/07/15 06:15:32;;;;;;;4.40;4.00;;;22.20;81.80;;;;;;4962897;28;20496;-67
2022/07/15 06:17:58;;;;;;;5.13;3.63;;;22.30;81.00;;;;;;4974641;28;20189;-68
2022/07/15 06:20:24;;;;;;;4.23;3.77;;;22.40;79.90;;;;;;4972442;28;20230;-68
2022/07/15 06:22:49;;;;;;;5.07;3.87;;;22.40;79.20;;;;;;4969308;28;20753;-67
2022/07/15 06:25:15;;;;;;;3.77;3.37;;;22.60;78.40;;;;;;4970718;28;20207;-67
2022/07/15 06:27:40;;;;;;;6.80;4.40;;;22.70;77.20;;;;;;4971153;28;20191;-68
2022/07/15 06:30:07;;;;;;;3.87;3.57;;;22.80;76.80;;;;;;4976456;28;20250;-69
2022/07/15 06:32:33;;;;;;;3.90;3.60;;;22.70;74.60;;;;;;4971665;28;20258;-68
2022/07/15 06:34:58;;;;;;;4.13;3.73;;;22.70;75.90;;;;;;4970875;28;20475;-68
2022/07/15 06:37:24;;;;;;;3.30;3.00;;;22.80;74.50;;;;;;4971807;28;20188;-68
2022/07/15 06:39:49;;;;;;;4.90;3.40;;;22.90;73.40;;;;;;4970477;28;20195;-68
2022/07/15 06:42:15;;;;;;;4.37;3.97;;;23.10;71.20;;;;;;4972188;28;20203;-68
2022/07/15 06:44:41;;;;;;;3.53;3.23;;;23.30;70.50;;;;;;4972089;28;20211;-67
2022/07/15 06:47:06;;;;;;;3.90;3.50;;;23.50;65.60;;;;;;4970822;28;20183;-67
2022/07/15 06:49:35;;;;;;;4.30;3.10;;;23.80;67.10;;;;;;4968181;28;20192;-68
2022/07/15 06:52:02;;;;;;;5.33;2.90;;;23.80;67.80;;;;;;4970870;28;20215;-67
2022/07/15 06:54:27;;;;;;;9.20;8.10;;;23.60;61.10;;;;;;4970899;28;20840;-67
2022/07/15 06:56:53;;;;;;;4.40;3.30;;;23.80;64.50;;;;;;4970847;28;20444;-69
2022/07/15 06:59:18;;;;;;;2.63;2.40;;;24.10;59.50;;;;;;4959025;28;20202;-71
2022/07/15 07:01:44;;;;;;;7.50;3.93;;;24.10;57.90;;;;;;4946673;28;20263;-67
2022/07/15 07:04:09;;;;;;;4.43;3.50;;;23.90;59.30;;;;;;4970321;28;20206;-72
2022/07/15 07:06:35;;;;;;;3.80;3.40;;;24.10;60.60;;;;;;4966418;28;20485;-68
2022/07/15 07:09:00;;;;;;;3.43;3.00;;;24.40;61.40;;;;;;4969242;28;20180;-68
2022/07/15 07:11:26;;;;;;;4.23;2.97;;;24.50;59.60;;;;;;4971797;28;20678;-68
2022/07/15 07:13:52;;;;;;;5.20;4.00;;;24.40;57.70;;;;;;4949144;28;20209;-68
2022/07/15 07:16:18;;;;;;;4.60;2.50;;;24.70;59.40;;;;;;4969457;28;20191;-67
2022/07/15 07:18:45;;;;;;;5.30;3.33;;;24.80;57.10;;;;;;4966164;28;20536;-68
2022/07/15 07:21:12;;;;;;;5.53;3.10;;;24.90;55.00;;;;;;4970944;28;21036;-68
2022/07/15 07:23:39;;;;;;;4.43;3.17;;;24.70;55.20;;;;;;4970461;28;20439;-68
2022/07/15 07:26:05;;;;;;;3.30;2.77;;;24.50;55.90;;;;;;4969551;28;20447;-68
2022/07/15 07:28:32;;;;;;;3.10;2.90;;;24.20;56.40;;;;;;4969823;28;20775;-70
2022/07/15 07:30:57;;;;;;;3.50;3.20;;;24.50;55.30;;;;;;4968663;28;20993;-69
2022/07/15 07:33:23;;;;;;;3.63;2.93;;;24.50;55.70;;;;;;4969637;28;20475;-68
2022/07/15 07:35:49;;;;;;;3.17;2.97;;;24.90;55.50;;;;;;4970982;28;20247;-67
2022/07/15 07:38:14;;;;;;;4.77;3.60;;;25.30;55.20;;;;;;4969346;28;20184;-69
2022/07/15 07:40:40;;;;;;;3.87;3.37;;;25.50;54.80;;;;;;4970285;28;20200;-68
2022/07/15 07:43:05;;;;;;;5.63;3.30;;;25.80;54.10;;;;;;4969495;28;20211;-68
2022/07/15 07:45:31;;;;;;;2.83;2.63;;;25.90;54.00;;;;;;4969714;28;20219;-69
2022/07/15 07:47:57;;;;;;;5.13;3.37;;;26.00;53.50;;;;;;4971249;28;20223;-67
2022/07/15 07:50:24;;;;;;;3.90;3.33;;;26.30;53.00;;;;;;4967142;28;20295;-68
2022/07/15 07:52:49;;;;;;;6.67;3.50;;;26.20;53.60;;;;;;4970008;28;20196;-70
2022/07/15 07:55:15;;;;;;;3.27;2.97;;;26.80;52.70;;;;;;4968350;28;20469;-69
2022/07/15 07:57:51;;;;;;;2.97;2.67;;;26.90;51.60;;;;;;4970239;28;20191;-68
2022/07/15 08:00:17;;;;;;;2.70;2.50;;;27.00;52.00;;;;;;4968891;28;20279;-67
2022/07/15 08:02:44;;;;;;;3.83;2.93;;;27.20;51.30;;;;;;4968000;28;20847;-69
2022/07/15 08:05:10;;;;;;;6.10;4.07;;;27.40;50.60;;;;;;4970439;28;21063;-67
2022/07/15 08:07:36;;;;;;;7.60;4.20;;;27.10;50.20;;;;;;4970099;28;20546;-68
2022/07/15 08:10:03;;;;;;;5.80;3.13;;;27.10;50.40;;;;;;4971112;28;20531;-68
2022/07/15 08:12:29;;;;;;;4.70;2.97;;;27.10;50.40;;;;;;4971501;28;20694;-69
2022/07/15 08:14:54;;;;;;;9.10;5.00;;;27.40;50.30;;;;;;4969495;28;20490;-69
2022/07/15 08:17:21;;;;;;;4.30;3.33;;;27.50;49.70;;;;;;4970356;28;20199;-69
2022/07/15 08:19:47;;;;;;;4.87;3.27;;;27.40;49.90;;;;;;4965665;28;20188;-69
2022/07/15 08:22:14;;;;;;;3.80;2.60;;;27.60;50.00;;;;;;4973792;28;20455;-68
2022/07/15 08:24:40;;;;;;;3.77;3.20;;;27.80;49.40;;;;;;4972021;28;20471;-68
2022/07/15 08:27:05;;;;;;;3.60;3.30;;;28.10;49.60;;;;;;4968537;28;21040;-72
2022/07/15 08:29:31;;;;;;;3.07;2.87;;;28.50;48.90;;;;;;4961923;28;20521;-69
2022/07/15 08:31:56;;;;;;;5.67;3.67;;;28.80;47.90;;;;;;4973579;28;20810;-68
2022/07/15 08:34:22;;;;;;;4.43;3.00;;;28.50;47.40;;;;;;4972425;28;20199;-69
2022/07/15 08:36:48;;;;;;;3.40;3.00;;;28.50;47.30;;;;;;4972003;28;20192;-69
2022/07/15 08:39:15;;;;;;;3.30;3.00;;;28.50;47.60;;;;;;4965286;28;20188;-69
2022/07/15 08:41:41;;;;;;;4.20;3.17;;;28.60;46.80;;;;;;4968989;28;20200;-70
2022/07/15 08:44:07;;;;;;;4.67;3.40;;;28.80;46.70;;;;;;4970872;28;20477;-68
2022/07/15 08:46:34;;;;;;;4.37;3.30;;;29.10;46.90;;;;;;4969575;28;20440;-69
2022/07/15 08:49:06;;;;;;;3.57;3.23;;;29.10;45.90;;;;;;4959726;28;20188;-65
2022/07/15 08:51:36;;;;;;;4.33;3.47;;;29.10;45.80;;;;;;4949987;28;20475;-70
2022/07/15 08:54:02;;;;;;;3.03;2.70;;;28.80;45.80;;;;;;4969959;28;20439;-67
2022/07/15 08:56:27;;;;;;;4.30;3.30;;;29.00;46.40;;;;;;4950318;28;21114;-66
2022/07/15 08:58:55;;;;;;;3.60;3.00;;;29.20;45.90;;;;;;4965889;28;20223;-66
2022/07/15 09:01:20;;;;;;;4.90;3.30;;;29.30;45.70;;;;;;4968932;28;20681;-67
2022/07/15 09:03:46;;;;;;;4.67;3.20;;;29.50;44.70;;;;;;4968149;28;20475;-69
2022/07/15 09:06:31;;;;;;;4.03;3.73;;;29.40;44.70;;;;;;4972578;28;20251;-67
2022/07/15 09:08:56;;;;;;;3.30;2.97;;;29.70;44.70;;;;;;4963849;28;20281;-68
2022/07/15 09:11:29;;;;;;;3.90;3.33;;;29.30;44.20;;;;;;4968425;28;20998;-69
2022/07/15 09:13:54;;;;;;;3.13;2.50;;;29.10;44.40;;;;;;4972133;28;20191;-70
2022/07/15 09:16:20;;;;;;;5.13;3.07;;;29.30;44.60;;;;;;4965704;28;20443;-68
2022/07/15 09:18:49;;;;;;;3.10;2.83;;;29.40;44.20;;;;;;4965401;28;20558;-67
2022/07/15 09:21:26;;;;;;;4.63;3.70;;;29.20;44.60;;;;;;4968343;28;20459;-65
2022/07/15 09:23:52;;;;;;;3.37;3.00;;;29.50;44.50;;;;;;4967338;28;20450;-69
2022/07/15 09:26:32;;;;;;;3.50;3.20;;;29.50;43.40;;;;;;4969325;28;21087;-68
2022/07/15 09:28:59;;;;;;;7.43;4.30;;;29.50;43.70;;;;;;4965353;28;20819;-68
2022/07/15 09:34:18;;;;;;;3.80;3.03;;;29.80;42.90;;;;;;4968286;28;20446;-69
2022/07/15 09:36:50;;;;;;;3.43;3.13;;;29.70;42.80;;;;;;4967288;28;20561;-68
2022/07/15 09:39:17;;;;;;;3.70;3.40;;;29.90;43.00;;;;;;4969157;28;20454;-68
2022/07/15 09:41:44;;;;;;;8.10;3.97;;;30.10;42.60;;;;;;4966863;28;20475;-65
2022/07/15 09:44:19;;;;;;;3.60;3.23;;;30.40;42.20;;;;;;4975102;28;20891;-65
2022/07/15 09:46:47;;;;;;;4.43;2.80;;;30.70;41.80;;;;;;4970466;28;20530;-68
2022/07/15 09:49:26;;;;;;;3.30;3.00;;;30.70;41.20;;;;;;4966641;28;20479;-69
2022/07/15 09:51:54;;;;;;;3.87;3.30;;;30.90;41.90;;;;;;4969846;28;20926;-67
2022/07/15 09:54:26;;;;;;;3.33;2.97;;;30.50;41.50;;;;;;4970458;28;20811;-66
2022/07/15 09:56:52;;;;;;;3.23;2.93;;;30.60;41.40;;;;;;4976861;28;20465;-67
2022/07/15 09:59:19;;;;;;;5.00;3.50;;;30.70;41.50;;;;;;4967661;28;20441;-67
2022/07/15 10:01:47;;;;;;;3.67;3.00;;;30.50;41.60;;;;;;4973110;28;20530;-67
2022/07/15 10:04:15;;;;;;;4.00;3.60;;;31.30;41.00;;;;;;4965777;28;20478;-68
2022/07/15 10:06:42;;;;;;;3.43;3.13;;;31.30;40.30;;;;;;4972956;28;20486;-68
2022/07/15 10:09:09;;;;;;;3.43;3.23;;;31.50;40.30;;;;;;4968646;28;20431;-69
2022/07/15 10:11:40;;;;;;;8.53;2.80;;;32.00;39.90;;;;;;4972145;28;20462;-69
2022/07/15 10:14:38;;;;;;;3.90;3.50;;;33.10;39.20;;;;;;4972194;28;20440;-66
2022/07/15 10:17:40;;;;;;;5.17;3.73;;;33.80;38.60;;;;;;4971012;28;20447;-68
2022/07/15 10:20:23;;;;;;;3.50;3.20;;;34.30;37.50;;;;;;4978888;28;20506;-65
2022/07/15 10:23:12;;;;;;;3.70;2.93;;;33.80;37.70;;;;;;4968779;28;20479;-68
2022/07/15 10:26:01;;;;;;;3.97;3.10;;;32.50;37.60;;;;;;4971556;28;20997;-68
2022/07/15 10:28:54;;;;;;;4.33;3.93;;;32.70;38.20;;;;;;4969227;28;20497;-69
2022/07/15 10:31:29;;;;;;;4.83;3.60;;;32.20;38.50;;;;;;4973144;28;20558;-68
2022/07/15 10:34:06;;;;;;;4.07;2.90;;;31.70;39.10;;;;;;4969082;28;20446;-65
2022/07/15 10:36:47;;;;;;;9.20;3.60;;;32.30;39.00;;;;;;4974091;28;20852;-66
2022/07/15 10:39:15;;;;;;;3.50;2.80;;;33.60;38.10;;;;;;4963752;28;20796;-68
2022/07/15 10:41:58;;;;;;;3.97;3.47;;;33.50;37.40;;;;;;4974327;28;20455;-66
2022/07/15 10:44:30;;;;;;;5.03;3.27;;;33.30;37.50;;;;;;4969425;28;20470;-66
2022/07/15 10:47:13;;;;;;;3.77;3.47;;;34.20;36.90;;;;;;4969608;28;20514;-66
2022/07/15 10:49:44;;;;;;;4.40;4.00;;;34.70;35.70;;;;;;4972412;28;20889;-65
2022/07/15 10:52:19;;;;;;;3.90;3.50;;;34.70;35.60;;;;;;4970982;28;20482;-65
2022/07/15 10:55:11;;;;;;;4.87;3.00;;;33.90;36.10;;;;;;4970453;28;20447;-65
2022/07/15 10:57:40;;;;;;;4.13;2.90;;;33.70;36.30;;;;;;4971233;28;20469;-65
2022/07/15 11:00:25;;;;;;;5.37;3.30;;;35.30;35.20;;;;;;4959110;28;20431;-65
2022/07/15 11:03:17;;;;;;;3.03;2.80;;;36.10;34.10;;;;;;4977243;28;20900;-64
2022/07/15 11:06:04;;;;;;;4.10;2.87;;;35.20;34.40;;;;;;4978782;28;20835;-64
2022/07/15 11:08:40;;;;;;;3.97;3.67;;;36.50;33.80;;;;;;4978544;28;20442;-65
2022/07/15 11:11:14;;;;;;;3.63;3.33;;;35.90;33.00;;;;;;4978116;28;21003;-66
2022/07/15 11:13:48;;;;;;;3.13;2.93;;;36.90;33.80;;;;;;4979154;28;20497;-65
2022/07/15 11:16:16;;;;;;;4.93;2.90;;;38.10;32.50;;;;;;4977034;28;20446;-64
2022/07/15 11:18:53;;;;;;;3.53;3.10;;;38.80;31.60;;;;;;4976800;28;20438;-69
2022/07/15 11:21:22;;;;;;;3.40;3.20;;;38.80;30.50;;;;;;4977989;28;20468;-64
2022/07/15 11:23:50;;;;;;;6.00;3.30;;;36.90;31.40;;;;;;4980253;28;20435;-65
2022/07/15 11:26:16;;;;;;;3.87;3.57;;;35.60;33.10;;;;;;4976944;28;20448;-64
2022/07/15 11:28:55;;;;;;;3.80;3.50;;;35.60;33.00;;;;;;4973947;28;20431;-66
2022/07/15 11:31:25;;;;;;;5.63;3.07;;;35.00;33.30;;;;;;4974156;28;20723;-63
2022/07/15 11:33:55;;;;;;;4.83;3.17;;;35.40;32.80;;;;;;4974911;28;20467;-64
2022/07/15 11:36:22;;;;;;;4.87;4.47;;;36.20;32.20;;;;;;4977903;28;20430;-63
2022/07/15 11:38:48;;;;;;;7.10;3.40;;;35.80;32.40;;;;;;4977598;28;20469;-63
2022/07/15 11:46:44;;;;;;;3.90;3.60;;;38.90;30.80;;;;;;4979123;28;20426;-64
2022/07/15 11:49:10;;;;;;;6.83;3.33;;;39.30;30.30;;;;;;4975477;28;20473;-64
2022/07/15 11:51:36;;;;;;;3.70;3.40;;;40.30;29.70;;;;;;4979082;28;20495;-65
2022/07/15 11:54:02;;;;;;;4.80;3.50;;;40.60;29.50;;;;;;4971090;28;20177;-65
2022/07/15 11:56:28;;;;;;;3.40;3.10;;;39.70;29.00;;;;;;4974284;28;20486;-65
2022/07/15 11:58:56;;;;;;;5.03;2.87;;;38.60;29.70;;;;;;4971062;28;20751;-64
2022/07/15 12:01:28;;;;;;;5.70;3.47;;;38.30;30.00;;;;;;4970666;28;20440;-64
2022/07/15 12:03:55;;;;;;;4.07;2.93;;;36.20;30.80;;;;;;4975176;28;20891;-64
2022/07/15 12:06:27;;;;;;;3.97;3.67;;;35.00;32.30;;;;;;4970146;28;20447;-64
2022/07/15 12:08:55;;;;;;;4.30;4.00;;;33.70;33.40;;;;;;4978762;28;20446;-64
2022/07/15 12:11:26;;;;;;;3.93;3.50;;;34.10;33.00;;;;;;4980680;28;20450;-70
2022/07/15 12:13:59;;;;;;;3.40;3.07;;;36.30;32.10;;;;;;4983529;28;20983;-65
2022/07/15 12:16:30;;;;;;;5.87;3.60;;;38.80;30.00;;;;;;4984176;28;20447;-65
2022/07/15 12:18:59;;;;;;;6.20;3.03;;;40.70;28.80;;;;;;4979849;28;20453;-66
2022/07/15 12:21:26;;;;;;;4.50;2.97;;;41.80;28.30;;;;;;4983224;28;20767;-64
2022/07/15 12:24:22;;;;;;;3.83;3.33;;;42.10;28.00;;;;;;4984016;28;20813;-65
2022/07/15 12:26:50;;;;;;;3.30;3.10;;;41.60;27.70;;;;;;4969242;28;20445;-65
2022/07/15 12:29:22;;;;;;;3.77;3.47;;;42.00;27.70;;;;;;4971967;28;20485;-66
2022/07/15 12:32:02;;;;;;;3.60;3.30;;;43.30;27.10;;;;;;4967630;28;20964;-66
2022/07/15 12:34:56;;;;;;;4.23;2.83;;;43.70;26.90;;;;;;4972150;28;20447;-69
2022/07/15 12:37:25;;;;;;;7.43;3.23;;;44.30;26.60;;;;;;4969457;28;20427;-68
2022/07/15 12:40:01;;;;;;;4.03;3.73;;;44.90;26.10;;;;;;4974686;28;20454;-65
2022/07/15 12:42:30;;;;;;;3.17;2.90;;;44.80;25.90;;;;;;4973068;28;20861;-69
2022/07/15 12:45:06;;;;;;;4.30;3.90;;;44.80;25.90;;;;;;4977900;28;20462;-64
2022/07/15 12:47:31;;;;;;;7.77;3.90;;;43.40;25.90;;;;;;4967310;28;20448;-67
2022/07/15 12:49:59;;;;;;;5.57;3.23;;;42.10;26.30;;;;;;4979289;28;20435;-66
2022/07/15 12:52:29;;;;;;;3.13;2.80;;;42.30;27.00;;;;;;4972774;28;20215;-65
2022/07/15 12:54:56;;;;;;;3.57;3.27;;;43.10;26.30;;;;;;4973068;28;20443;-65
2022/07/15 12:57:33;;;;;;;6.07;3.30;;;41.60;26.80;;;;;;4974605;28;20455;-65
2022/07/15 13:00:05;;;;;;;3.77;3.47;;;38.90;27.30;;;;;;4970911;28;20933;-68
2022/07/15 13:02:32;;;;;;;4.20;3.80;;;37.40;28.50;;;;;;4972650;28;20551;-65
2022/07/15 13:04:58;;;;;;;4.10;3.70;;;35.70;29.70;;;;;;4969407;28;20558;-64
2022/07/15 13:07:24;;;;;;;3.70;3.40;;;34.70;30.70;;;;;;4957649;28;20450;-65